createdAt,value
2022-12-01T00:00:42.789Z,6.1
2022-12-01T00:01:50.081Z,6.1
2022-12-01T00:02:56.615Z,6.1
2022-12-01T00:04:03.569Z,6
2022-12-01T00:05:10.798Z,6.1
2022-12-01T00:06:17.874Z,6.1
2022-12-01T00:07:25.075Z,6.1
2022-12-01T00:08:31.527Z,6.1
2022-12-01T00:09:38.653Z,6.1
2022-12-01T00:10:45.804Z,6.1
2022-12-01T00:11:52.822Z,6.1
2022-12-01T00:13:00.004Z,6.1
2022-12-01T00:14:06.510Z,6.1
2022-12-01T00:15:14.168Z,6.1
2022-12-01T00:16:20.773Z,6.1
2022-12-01T00:17:27.808Z,6.1
2022-12-01T00:18:34.947Z,6.1
2022-12-01T00:19:41.514Z,6.1
2022-12-01T00:20:48.597Z,6.1
2022-12-01T00:21:55.785Z,6.1
2022-12-01T00:23:02.803Z,6.1
2022-12-01T00:24:09.923Z,6.1
2022-12-01T00:25:16.590Z,6.1
2022-12-01T00:26:23.666Z,6.1
2022-12-01T00:28:37.894Z,6.2
2022-12-01T00:29:44.999Z,6.2
2022-12-01T00:30:51.528Z,6.2
2022-12-01T00:31:58.765Z,6.2
2022-12-01T00:33:05.765Z,6.2
2022-12-01T00:34:12.872Z,6.3
2022-12-01T00:35:19.914Z,6.3
2022-12-01T00:36:26.595Z,6.3
2022-12-01T00:37:33.630Z,6.3
2022-12-01T00:38:40.752Z,6.3
2022-12-01T00:39:48.302Z,6.3
2022-12-01T00:40:54.967Z,6.3
2022-12-01T00:42:01.586Z,6.3
2022-12-01T00:43:08.615Z,6.3
2022-12-01T00:44:15.849Z,6.4
2022-12-01T00:45:22.904Z,6.4
2022-12-01T00:46:29.516Z,6.4
2022-12-01T00:47:36.574Z,6.4
2022-12-01T00:48:43.644Z,6.4
2022-12-01T00:49:51.028Z,6.4
2022-12-01T00:52:04.536Z,6.4
2022-12-01T00:53:11.594Z,6.4
2022-12-01T00:54:18.646Z,6.4
2022-12-01T00:55:25.763Z,6.4
2022-12-01T00:56:32.929Z,6.4
2022-12-01T00:57:39.431Z,6.4
2022-12-01T00:58:46.557Z,6.4
2022-12-01T00:59:53.755Z,6.4
2022-12-01T01:01:00.960Z,6.4
2022-12-01T01:02:07.919Z,6.4
2022-12-01T01:03:14.531Z,6.4
2022-12-01T01:04:21.610Z,6.4
2022-12-01T01:05:28.644Z,6.4
2022-12-01T01:07:43.093Z,6.4
2022-12-01T01:09:56.601Z,6.4
2022-12-01T01:11:03.757Z,6.4
2022-12-01T01:12:10.854Z,6.4
2022-12-01T01:13:17.872Z,6.4
2022-12-01T01:14:24.503Z,6.4
2022-12-01T01:15:31.664Z,6.4
2022-12-01T01:16:38.791Z,6.4
2022-12-01T01:17:45.820Z,6.4
2022-12-01T01:18:52.935Z,6.4
2022-12-01T01:19:59.468Z,6.4
2022-12-01T01:21:06.637Z,6.4
2022-12-01T01:22:13.719Z,6.4
2022-12-01T01:23:20.805Z,6.5
2022-12-01T01:24:27.916Z,6.5
2022-12-01T01:25:34.526Z,6.5
2022-12-01T01:26:41.644Z,6.5
2022-12-01T01:27:48.706Z,6.5
2022-12-01T01:28:55.876Z,6.5
2022-12-01T01:30:02.958Z,6.6
2022-12-01T01:31:11.239Z,6.6
2022-12-01T01:32:16.603Z,6.6
2022-12-01T01:33:23.729Z,6.6
2022-12-01T01:34:30.848Z,6.6
2022-12-01T01:35:37.905Z,6.6
2022-12-01T01:36:44.513Z,6.6
2022-12-01T01:37:51.654Z,6.6
2022-12-01T01:38:58.704Z,6.6
2022-12-01T01:40:05.838Z,6.7
2022-12-01T01:41:13.034Z,6.7
2022-12-01T01:42:19.507Z,6.7
2022-12-01T01:43:27.123Z,6.6
2022-12-01T01:44:33.722Z,6.7
2022-12-01T01:45:41.860Z,6.7
2022-12-01T01:46:47.424Z,6.7
2022-12-01T01:47:54.577Z,6.7
2022-12-01T01:49:01.648Z,6.7
2022-12-01T01:51:15.928Z,6.8
2022-12-01T01:52:22.427Z,6.8
2022-12-01T01:53:29.502Z,6.8
2022-12-01T01:55:43.782Z,6.8
2022-12-01T01:56:50.923Z,6.8
2022-12-01T01:57:57.424Z,6.8
2022-12-01T01:59:04.558Z,6.8
2022-12-01T02:00:11.646Z,6.8
2022-12-01T02:01:18.853Z,6.9
2022-12-01T02:02:25.929Z,6.9
2022-12-01T02:03:32.458Z,6.9
2022-12-01T02:04:39.588Z,6.9
2022-12-01T02:05:46.623Z,6.9
2022-12-01T02:06:53.835Z,7
2022-12-01T02:08:00.887Z,7
2022-12-01T02:09:07.451Z,7
2022-12-01T02:10:14.583Z,7
2022-12-01T02:11:21.695Z,7
2022-12-01T02:12:28.745Z,7
2022-12-01T02:13:35.849Z,7
2022-12-01T02:14:42.498Z,7.1
2022-12-01T02:15:49.549Z,7.1
2022-12-01T02:16:56.797Z,7.1
2022-12-01T02:18:03.792Z,7.1
2022-12-01T02:19:10.890Z,7.1
2022-12-01T02:20:17.467Z,7.1
2022-12-01T02:21:24.590Z,7.2
2022-12-01T02:22:31.714Z,7.2
2022-12-01T02:23:38.782Z,7.2
2022-12-01T02:24:45.860Z,7.2
2022-12-01T02:25:52.466Z,7.2
2022-12-01T02:26:59.619Z,7.2
2022-12-01T02:28:06.669Z,7.2
2022-12-01T02:29:13.809Z,7.2
2022-12-01T02:30:20.889Z,7.2
2022-12-01T02:32:34.657Z,7.3
2022-12-01T02:33:41.691Z,7.3
2022-12-01T02:35:55.948Z,7.4
2022-12-01T02:37:02.535Z,7.4
2022-12-01T02:38:09.593Z,7.4
2022-12-01T02:39:16.748Z,7.4
2022-12-01T02:40:23.850Z,7.4
2022-12-01T02:41:30.979Z,7.4
2022-12-01T02:42:37.497Z,7.4
2022-12-01T02:43:44.607Z,7.4
2022-12-01T02:44:51.716Z,7.4
2022-12-01T02:45:58.850Z,7.4
2022-12-01T02:47:06.025Z,7.4
2022-12-01T02:48:12.506Z,7.5
2022-12-01T02:49:19.577Z,7.5
2022-12-01T02:50:26.674Z,7.5
2022-12-01T02:51:33.894Z,7.5
2022-12-01T02:52:40.959Z,7.5
2022-12-01T02:53:47.528Z,7.5
2022-12-01T02:54:54.617Z,7.5
2022-12-01T02:56:01.726Z,7.5
2022-12-01T02:57:08.858Z,7.5
2022-12-01T02:59:22.523Z,7.5
2022-12-01T03:00:29.607Z,7.5
2022-12-01T03:01:36.846Z,7.5
2022-12-01T03:02:43.950Z,7.6
2022-12-01T03:03:50.431Z,7.6
2022-12-01T03:04:57.535Z,7.6
2022-12-01T03:06:04.639Z,7.6
2022-12-01T03:07:11.827Z,7.6
2022-12-01T03:08:18.845Z,7.6
2022-12-01T03:09:25.444Z,7.6
2022-12-01T03:10:32.554Z,7.7
2022-12-01T03:11:40.158Z,7.7
2022-12-01T03:13:53.850Z,7.7
2022-12-01T03:15:00.454Z,7.7
2022-12-01T03:16:07.567Z,7.7
2022-12-01T03:17:14.704Z,7.7
2022-12-01T03:18:21.796Z,7.7
2022-12-01T03:19:28.839Z,7.7
2022-12-01T03:20:35.477Z,7.7
2022-12-01T03:21:42.557Z,7.7
2022-12-01T03:22:49.643Z,7.7
2022-12-01T03:23:56.746Z,7.7
2022-12-01T03:25:03.845Z,7.8
2022-12-01T03:26:10.456Z,7.8
2022-12-01T03:27:17.886Z,7.8
2022-12-01T03:28:24.674Z,7.8
2022-12-01T03:29:31.788Z,7.8
2022-12-01T03:30:39.950Z,7.8
2022-12-01T03:31:45.582Z,7.8
2022-12-01T03:32:52.625Z,7.8
2022-12-01T03:33:59.645Z,7.8
2022-12-01T03:35:06.816Z,7.8
2022-12-01T03:36:13.909Z,7.8
2022-12-01T03:37:20.521Z,7.8
2022-12-01T03:38:27.577Z,7.8
2022-12-01T03:39:34.702Z,7.9
2022-12-01T03:40:41.777Z,7.9
2022-12-01T03:41:48.937Z,7.9
2022-12-01T03:42:55.494Z,7.9
2022-12-01T03:44:02.591Z,7.9
2022-12-01T03:45:09.677Z,7.9
2022-12-01T03:46:16.851Z,7.9
2022-12-01T03:47:23.944Z,7.9
2022-12-01T03:48:30.509Z,7.9
2022-12-01T03:49:37.669Z,8
2022-12-01T03:50:44.702Z,8
2022-12-01T03:51:51.875Z,8
2022-12-01T03:52:58.908Z,8
2022-12-01T03:55:12.640Z,8
2022-12-01T03:56:19.678Z,8
2022-12-01T03:57:26.816Z,8
2022-12-01T03:58:33.931Z,8
2022-12-01T03:59:40.502Z,7.9
2022-12-01T04:00:47.587Z,8
2022-12-01T04:04:08.953Z,8
2022-12-01T04:05:15.509Z,7.9
2022-12-01T04:06:22.623Z,7.9
2022-12-01T04:07:29.740Z,7.9
2022-12-01T04:08:36.787Z,8
2022-12-01T04:09:43.434Z,8
2022-12-01T04:10:50.525Z,8
2022-12-01T04:11:58.668Z,8
2022-12-01T04:13:04.714Z,8
2022-12-01T04:14:11.821Z,8
2022-12-01T04:15:18.423Z,8
2022-12-01T04:16:26.174Z,8
2022-12-01T04:17:32.642Z,8
2022-12-01T04:18:39.726Z,8
2022-12-01T04:19:47.004Z,8
2022-12-01T04:20:53.449Z,8.1
2022-12-01T04:22:00.510Z,8.1
2022-12-01T04:23:07.651Z,8.1
2022-12-01T04:24:14.769Z,8.1
2022-12-01T04:25:21.863Z,8.1
2022-12-01T04:26:28.476Z,8.1
2022-12-01T04:27:35.564Z,8.1
2022-12-01T04:28:42.643Z,8.1
2022-12-01T04:29:50.025Z,8.2
2022-12-01T04:30:56.900Z,8.2
2022-12-01T04:32:03.457Z,8.2
2022-12-01T04:33:10.575Z,8.2
2022-12-01T04:34:17.619Z,8.2
2022-12-01T04:36:32.013Z,8.3
2022-12-01T04:37:38.426Z,8.3
2022-12-01T04:38:45.549Z,8.4
2022-12-01T04:39:53.210Z,8.5
2022-12-01T04:40:59.745Z,8.6
2022-12-01T04:42:06.860Z,8.7
2022-12-01T04:43:13.486Z,8.7
2022-12-01T04:44:20.572Z,8.7
2022-12-01T04:45:27.640Z,8.8
2022-12-01T04:46:34.923Z,8.7
2022-12-01T04:47:41.865Z,8.7
2022-12-01T04:48:48.434Z,8.8
2022-12-01T04:49:55.566Z,9
2022-12-01T04:51:02.683Z,9
2022-12-01T04:52:09.817Z,9.1
2022-12-01T04:53:16.885Z,9.2
2022-12-01T04:54:23.493Z,9.2
2022-12-01T04:55:30.596Z,9.2
2022-12-01T04:56:37.688Z,9.2
2022-12-01T04:57:44.818Z,9.2
2022-12-01T04:58:51.908Z,9.2
2022-12-01T04:59:58.475Z,9.2
2022-12-01T05:01:05.757Z,9.3
2022-12-01T05:02:12.783Z,9.3
2022-12-01T05:03:19.760Z,9.3
2022-12-01T05:04:26.905Z,9.3
2022-12-01T05:06:40.601Z,9.4
2022-12-01T05:07:47.785Z,9.4
2022-12-01T05:08:54.810Z,9.4
2022-12-01T05:10:01.943Z,9.4
2022-12-01T05:11:08.475Z,9.4
2022-12-01T05:12:15.643Z,9.4
2022-12-01T05:13:22.817Z,9.5
2022-12-01T05:14:29.816Z,9.4
2022-12-01T05:15:36.886Z,9.4
2022-12-01T05:17:50.664Z,9.4
2022-12-01T05:18:57.790Z,9.4
2022-12-01T05:20:04.856Z,9.5
2022-12-01T05:21:11.939Z,9.5
2022-12-01T05:22:26.934Z,9.5
2022-12-01T05:23:25.658Z,9.5
2022-12-01T05:24:32.748Z,9.5
2022-12-01T05:25:41.818Z,9.5
2022-12-01T05:26:46.945Z,9.5
2022-12-01T05:27:53.507Z,9.5
2022-12-01T05:29:00.608Z,9.5
2022-12-01T05:30:07.734Z,9.6
2022-12-01T05:32:21.416Z,9.6
2022-12-01T05:33:28.527Z,9.6
2022-12-01T05:34:36.685Z,9.6
2022-12-01T05:35:42.759Z,9.7
2022-12-01T05:36:49.877Z,9.7
2022-12-01T05:37:56.447Z,9.7
2022-12-01T05:39:03.527Z,9.7
2022-12-01T05:40:10.656Z,9.7
2022-12-01T05:41:17.741Z,9.7
2022-12-01T05:42:24.914Z,9.8
2022-12-01T05:43:31.453Z,9.8
2022-12-01T05:49:06.485Z,9.8
2022-12-01T05:51:20.682Z,9.8
2022-12-01T05:52:27.803Z,9.8
2022-12-01T05:53:34.875Z,9.8
2022-12-01T05:56:55.699Z,9.8
2022-12-01T06:01:23.566Z,10
2022-12-01T06:02:30.734Z,10
2022-12-01T06:03:37.738Z,10
2022-12-01T06:04:44.874Z,10
2022-12-01T06:05:51.476Z,10
2022-12-01T06:06:58.567Z,10
2022-12-01T06:08:06.211Z,10
2022-12-01T06:10:19.868Z,10.1
2022-12-01T06:11:26.482Z,10
2022-12-01T06:12:33.626Z,10
2022-12-01T06:13:40.722Z,10
2022-12-01T06:14:47.785Z,10
2022-12-01T06:17:01.597Z,10
2022-12-01T06:18:08.568Z,10
2022-12-01T06:19:15.690Z,10
2022-12-01T06:20:22.807Z,10.1
2022-12-01T06:21:29.889Z,10
2022-12-01T06:22:36.516Z,10
2022-12-01T06:23:43.615Z,10
2022-12-01T06:24:50.730Z,10
2022-12-01T06:25:57.807Z,10
2022-12-01T06:27:04.962Z,10
2022-12-01T06:28:11.540Z,10
2022-12-01T06:29:18.587Z,10
2022-12-01T06:30:25.738Z,10
2022-12-01T06:31:32.914Z,10
2022-12-01T06:32:39.883Z,10
2022-12-01T06:33:46.534Z,10
2022-12-01T06:34:53.765Z,10.1
2022-12-01T06:36:00.727Z,10.1
2022-12-01T06:37:07.821Z,10.2
2022-12-01T06:38:15.036Z,10.2
2022-12-01T06:40:28.587Z,10.1
2022-12-01T06:41:35.709Z,10.1
2022-12-01T06:42:42.877Z,10.1
2022-12-01T06:43:49.895Z,10.1
2022-12-01T06:44:56.554Z,10.1
2022-12-01T06:46:03.708Z,10.1
2022-12-01T06:47:10.741Z,10.1
2022-12-01T06:48:17.817Z,10
2022-12-01T06:49:24.448Z,10.1
2022-12-01T06:50:31.557Z,10
2022-12-01T06:51:38.617Z,10.1
2022-12-01T06:52:45.766Z,10.1
2022-12-01T06:53:52.850Z,10.2
2022-12-01T06:54:59.438Z,10.1
2022-12-01T06:56:06.556Z,10.1
2022-12-01T06:57:14.748Z,10.1
2022-12-01T06:58:20.747Z,10.1
2022-12-01T07:00:34.439Z,10.1
2022-12-01T07:01:41.626Z,10.1
2022-12-01T07:02:48.718Z,10.1
2022-12-01T07:03:55.744Z,10.1
2022-12-01T07:05:02.849Z,10.2
2022-12-01T07:06:09.421Z,10.2
2022-12-01T07:07:16.559Z,10.1
2022-12-01T07:08:23.704Z,10.1
2022-12-01T07:09:30.758Z,10.1
2022-12-01T07:10:37.829Z,10.2
2022-12-01T07:11:44.451Z,10.2
2022-12-01T07:13:58.636Z,10.2
2022-12-01T07:15:05.812Z,10.2
2022-12-01T07:16:12.947Z,10.2
2022-12-01T07:17:19.444Z,10.3
2022-12-01T07:18:26.547Z,10.3
2022-12-01T07:19:33.994Z,10.3
2022-12-01T07:21:47.899Z,10.2
2022-12-01T07:22:54.465Z,10.2
2022-12-01T07:24:01.601Z,10.1
2022-12-01T07:25:08.658Z,10.1
2022-12-01T07:26:15.777Z,10.1
2022-12-01T07:27:22.949Z,10.2
2022-12-01T07:28:29.466Z,10.2
2022-12-01T07:29:36.578Z,10.2
2022-12-01T07:30:43.723Z,10.2
2022-12-01T07:31:50.800Z,10.2
2022-12-01T07:32:57.891Z,10.2
2022-12-01T07:34:04.477Z,10.3
2022-12-01T07:35:11.603Z,10.2
2022-12-01T07:36:19.225Z,10.2
2022-12-01T07:37:25.847Z,10.2
2022-12-01T07:38:33.458Z,10.2
2022-12-01T07:39:39.465Z,10.1
2022-12-01T07:40:46.687Z,10.1
2022-12-01T07:41:53.758Z,10.2
2022-12-01T07:43:00.787Z,10.2
2022-12-01T07:44:07.882Z,10.2
2022-12-01T07:45:14.529Z,10.2
2022-12-01T07:46:23.702Z,10.2
2022-12-01T07:47:28.724Z,10.2
2022-12-01T07:48:35.854Z,10.2
2022-12-01T07:49:42.947Z,10.2
2022-12-01T07:50:49.496Z,10.2
2022-12-01T07:51:56.661Z,10.1
2022-12-01T07:53:03.712Z,10.1
2022-12-01T07:54:10.827Z,10.1
2022-12-01T07:55:17.908Z,10.1
2022-12-01T07:56:24.521Z,10.1
2022-12-01T07:57:31.648Z,10.1
2022-12-01T07:58:38.683Z,10.1
2022-12-01T07:59:45.869Z,10.2
2022-12-01T08:00:52.425Z,10.1
2022-12-01T08:01:59.613Z,10.1
2022-12-01T08:03:06.698Z,10.1
2022-12-01T08:04:13.724Z,10.1
2022-12-01T08:05:20.871Z,10.1
2022-12-01T08:06:27.389Z,10.1
2022-12-01T08:07:34.697Z,10.2
2022-12-01T08:08:41.655Z,10.1
2022-12-01T08:09:49.063Z,10.1
2022-12-01T08:10:55.852Z,10.2
2022-12-01T08:12:02.437Z,10.2
2022-12-01T08:13:12.922Z,10.2
2022-12-01T08:14:16.610Z,10.1
2022-12-01T08:15:23.773Z,10.1
2022-12-01T08:17:37.650Z,10.2
2022-12-01T08:18:44.589Z,10.2
2022-12-01T08:19:51.589Z,10.1
2022-12-01T08:20:58.725Z,10.1
2022-12-01T08:22:05.869Z,10.1
2022-12-01T08:23:12.512Z,10.1
2022-12-01T08:24:19.513Z,10.1
2022-12-01T08:25:26.640Z,10
2022-12-01T08:26:33.799Z,10
2022-12-01T08:28:47.720Z,10
2022-12-01T08:29:54.553Z,10.1
2022-12-01T08:31:01.732Z,10
2022-12-01T08:32:08.846Z,10
2022-12-01T08:33:15.884Z,10
2022-12-01T08:34:22.498Z,10
2022-12-01T08:35:29.582Z,10
2022-12-01T08:36:36.672Z,10
2022-12-01T08:37:43.792Z,10
2022-12-01T08:38:50.864Z,10
2022-12-01T08:39:57.459Z,10
2022-12-01T08:41:04.603Z,10
2022-12-01T08:42:11.739Z,10.1
2022-12-01T08:43:49.611Z,10.1
2022-12-01T08:44:25.908Z,10.1
2022-12-01T08:45:32.503Z,10.1
2022-12-01T08:46:39.651Z,10.1
2022-12-01T08:47:47.037Z,10.1
2022-12-01T08:48:53.780Z,10.1
2022-12-01T08:50:00.900Z,10.1
2022-12-01T08:51:07.451Z,10.1
2022-12-01T08:52:14.592Z,10.1
2022-12-01T08:53:21.712Z,10.1
2022-12-01T08:54:28.786Z,10.1
2022-12-01T08:55:35.926Z,10.1
2022-12-01T08:56:42.498Z,10.1
2022-12-01T08:57:49.636Z,10.1
2022-12-01T08:58:56.668Z,10.1
2022-12-01T09:00:03.817Z,10.1
2022-12-01T09:01:11.438Z,10.1
2022-12-01T09:02:17.553Z,10.1
2022-12-01T09:03:24.669Z,10.1
2022-12-01T09:04:32.231Z,10.1
2022-12-01T09:05:41.896Z,10.1
2022-12-01T09:06:45.427Z,10.1
2022-12-01T09:07:52.689Z,10.1
2022-12-01T09:08:59.615Z,10.2
2022-12-01T09:10:06.707Z,10.1
2022-12-01T09:11:13.822Z,10.1
2022-12-01T09:12:20.373Z,10.2
2022-12-01T09:13:27.518Z,10.1
2022-12-01T09:14:34.625Z,10.1
2022-12-01T09:15:42.005Z,10.2
2022-12-01T09:16:49.143Z,10.1
2022-12-01T09:17:55.443Z,10.1
2022-12-01T09:19:02.556Z,10.1
2022-12-01T09:21:16.713Z,10.1
2022-12-01T09:22:23.895Z,10.2
2022-12-01T09:23:30.447Z,10.2
2022-12-01T09:24:37.528Z,10.2
2022-12-01T09:25:44.647Z,10.2
2022-12-01T09:26:51.818Z,10.2
2022-12-01T09:27:58.837Z,10.2
2022-12-01T09:29:05.432Z,10.2
2022-12-01T09:30:12.527Z,10.2
2022-12-01T09:31:19.611Z,10.1
2022-12-01T09:32:26.787Z,10.1
2022-12-01T09:33:33.834Z,10.1
2022-12-01T09:34:40.496Z,10.1
2022-12-01T09:35:47.549Z,10.1
2022-12-01T09:36:54.679Z,10.1
2022-12-01T09:38:01.850Z,10.1
2022-12-01T09:39:08.859Z,10.1
2022-12-01T09:40:15.406Z,10.1
2022-12-01T09:41:22.534Z,10.1
2022-12-01T09:42:33.909Z,10.1
2022-12-01T09:43:36.745Z,10.1
2022-12-01T09:44:43.857Z,10.1
2022-12-01T09:45:50.443Z,10.1
2022-12-01T09:46:57.606Z,10.1
2022-12-01T09:48:04.710Z,10.1
2022-12-01T09:49:11.775Z,10.1
2022-12-01T09:50:18.859Z,10.1
2022-12-01T09:51:25.457Z,10.1
2022-12-01T09:52:32.728Z,10.1
2022-12-01T09:53:39.662Z,10.1
2022-12-01T09:54:46.775Z,10.2
2022-12-01T09:55:56.674Z,10.1
2022-12-01T09:57:00.441Z,10.2
2022-12-01T09:58:07.551Z,10.1
2022-12-01T09:59:14.679Z,10.1
2022-12-01T10:00:21.769Z,10.1
2022-12-01T10:01:28.894Z,10.2
2022-12-01T10:02:35.640Z,10.1
2022-12-01T10:03:42.649Z,10.1
2022-12-01T10:04:49.647Z,10.1
2022-12-01T10:06:25.968Z,10.1
2022-12-01T10:07:03.898Z,10.1
2022-12-01T10:08:10.484Z,10.1
2022-12-01T10:09:17.571Z,10.1
2022-12-01T10:10:24.706Z,10.1
2022-12-01T10:11:31.787Z,10.1
2022-12-01T10:12:38.374Z,10.2
2022-12-01T10:13:45.482Z,10.1
2022-12-01T10:14:52.626Z,10.1
2022-12-01T10:16:00.002Z,10.1
2022-12-01T10:17:06.839Z,10.1
2022-12-01T10:18:13.413Z,10.1
2022-12-01T10:19:20.519Z,10.1
2022-12-01T10:20:27.564Z,10.1
2022-12-01T10:21:34.745Z,10.2
2022-12-01T10:22:41.808Z,10.2
2022-12-01T10:24:55.504Z,10.2
2022-12-01T10:26:02.605Z,10.2
2022-12-01T10:27:09.772Z,10.2
2022-12-01T10:28:16.776Z,10.2
2022-12-01T10:29:23.385Z,10.2
2022-12-01T10:30:30.510Z,10.2
2022-12-01T10:31:37.686Z,10.3
2022-12-01T10:32:45.308Z,10.3
2022-12-01T10:33:51.816Z,10.3
2022-12-01T10:34:58.394Z,10.3
2022-12-01T10:36:05.526Z,10.3
2022-12-01T10:37:12.639Z,10.3
2022-12-01T10:38:19.688Z,10.3
2022-12-01T10:39:26.837Z,10.3
2022-12-01T10:40:33.499Z,10.3
2022-12-01T10:41:40.536Z,10.3
2022-12-01T10:42:47.676Z,10.3
2022-12-01T10:43:54.746Z,10.3
2022-12-01T10:45:01.855Z,10.3
2022-12-01T10:46:08.469Z,10.3
2022-12-01T10:47:15.552Z,10.3
2022-12-01T10:48:22.658Z,10.3
2022-12-01T10:49:29.706Z,10.3
2022-12-01T10:50:36.843Z,10.3
2022-12-01T10:51:43.455Z,10.3
2022-12-01T10:52:50.540Z,10.3
2022-12-01T10:53:57.652Z,10.3
2022-12-01T10:55:04.760Z,10.3
2022-12-01T10:56:11.847Z,10.3
2022-12-01T10:57:18.487Z,10.3
2022-12-01T10:58:25.576Z,10.3
2022-12-01T10:59:32.682Z,10.3
2022-12-01T11:00:59.515Z,10.3
2022-12-01T11:01:46.945Z,10.3
2022-12-01T11:02:53.648Z,10.3
2022-12-01T11:04:00.613Z,10.3
2022-12-01T11:06:14.778Z,10.4
2022-12-01T11:07:21.921Z,10.4
2022-12-01T11:08:28.415Z,10.4
2022-12-01T11:09:35.922Z,10.4
2022-12-01T11:10:42.655Z,10.4
2022-12-01T11:11:49.787Z,10.4
2022-12-01T11:12:56.939Z,10.4
2022-12-01T11:14:03.453Z,10.4
2022-12-01T11:15:10.578Z,10.4
2022-12-01T11:16:17.704Z,10.4
2022-12-01T11:17:24.795Z,10.4
2022-12-01T11:18:31.918Z,10.3
2022-12-01T11:19:38.676Z,10.4
2022-12-01T11:20:45.633Z,10.4
2022-12-01T11:21:52.708Z,10.4
2022-12-01T11:22:59.812Z,10.4
2022-12-01T11:25:13.528Z,10.4
2022-12-01T11:26:20.590Z,10.4
2022-12-01T11:28:34.878Z,10.4
2022-12-01T11:29:41.343Z,10.4
2022-12-01T11:30:52.479Z,10.4
2022-12-01T11:31:55.645Z,10.4
2022-12-01T11:33:02.692Z,10.4
2022-12-01T11:34:09.791Z,10.4
2022-12-01T11:35:16.391Z,10.4
2022-12-01T11:36:23.515Z,10.4
2022-12-01T11:37:30.639Z,10.4
2022-12-01T11:38:37.669Z,10.4
2022-12-01T11:39:44.867Z,10.4
2022-12-01T11:40:51.425Z,10.4
2022-12-01T11:41:58.504Z,10.4
2022-12-01T11:43:05.628Z,10.5
2022-12-01T11:44:28.547Z,10.5
2022-12-01T11:45:19.789Z,10.5
2022-12-01T11:47:33.495Z,10.5
2022-12-01T11:48:40.621Z,10.5
2022-12-01T11:49:47.788Z,10.5
2022-12-01T11:50:54.887Z,10.5
2022-12-01T11:52:01.602Z,10.5
2022-12-01T11:53:08.605Z,10.6
2022-12-01T11:54:15.629Z,10.5
2022-12-01T11:55:22.731Z,10.6
2022-12-01T11:56:29.801Z,10.6
2022-12-01T11:57:36.452Z,10.6
2022-12-01T11:58:43.593Z,10.6
2022-12-01T11:59:50.802Z,10.6
2022-12-01T12:00:58.225Z,10.6
2022-12-01T12:02:04.923Z,10.6
2022-12-01T12:03:11.510Z,10.5
2022-12-01T12:04:18.527Z,10.6
2022-12-01T12:05:25.608Z,10.6
2022-12-01T12:06:39.999Z,10.6
2022-12-01T12:07:40.053Z,10.6
2022-12-01T12:08:46.537Z,10.5
2022-12-01T12:09:53.585Z,10.5
2022-12-01T12:11:00.703Z,10.5
2022-12-01T12:12:07.755Z,10.6
2022-12-01T12:13:15.071Z,10.6
2022-12-01T12:14:21.513Z,10.6
2022-12-01T12:15:28.510Z,10.6
2022-12-01T12:16:35.747Z,10.6
2022-12-01T12:17:42.838Z,10.6
2022-12-01T12:18:49.915Z,10.6
2022-12-01T12:20:08.135Z,10.6
2022-12-01T12:21:03.583Z,10.6
2022-12-01T12:22:10.666Z,10.6
2022-12-01T12:23:17.810Z,10.6
2022-12-01T12:24:24.926Z,10.6
2022-12-01T12:25:31.467Z,10.6
2022-12-01T12:26:38.547Z,10.6
2022-12-01T12:28:52.764Z,10.6
2022-12-01T12:29:59.359Z,10.6
2022-12-01T12:32:13.608Z,10.6
2022-12-01T12:33:20.769Z,10.6
2022-12-01T12:34:27.799Z,10.6
2022-12-01T12:35:34.412Z,10.6
2022-12-01T12:36:41.488Z,10.5
2022-12-01T12:37:48.543Z,10.5
2022-12-01T12:38:55.698Z,10.5
2022-12-01T12:40:02.752Z,10.5
2022-12-01T12:41:09.346Z,10.5
2022-12-01T12:42:16.583Z,10.5
2022-12-01T12:43:23.620Z,10.5
2022-12-01T12:44:36.611Z,10.5
2022-12-01T12:45:37.795Z,10.6
2022-12-01T12:46:44.442Z,10.6
2022-12-01T12:47:51.554Z,10.6
2022-12-01T12:49:19.134Z,10.6
2022-12-01T12:50:05.719Z,10.5
2022-12-01T12:51:12.856Z,10.6
2022-12-01T12:53:26.614Z,10.5
2022-12-01T12:54:33.681Z,10.6
2022-12-01T12:55:41.945Z,10.5
2022-12-01T12:56:47.819Z,10.6
2022-12-01T12:57:54.410Z,10.6
2022-12-01T12:59:01.675Z,10.6
2022-12-01T13:00:08.574Z,10.6
2022-12-01T13:01:15.890Z,10.6
2022-12-01T13:02:22.914Z,10.6
2022-12-01T13:03:33.888Z,10.6
2022-12-01T13:04:36.695Z,10.6
2022-12-01T13:05:43.626Z,10.6
2022-12-01T13:06:50.732Z,10.6
2022-12-01T13:07:57.942Z,10.6
2022-12-01T13:10:11.834Z,10.6
2022-12-01T13:11:18.596Z,10.6
2022-12-01T13:12:25.759Z,10.6
2022-12-01T13:13:32.852Z,10.6
2022-12-01T13:14:39.475Z,10.6
2022-12-01T13:15:46.804Z,10.5
2022-12-01T13:16:53.630Z,10.5
2022-12-01T13:18:00.724Z,10.6
2022-12-01T13:19:07.878Z,10.5
2022-12-01T13:20:14.535Z,10.5
2022-12-01T13:21:21.822Z,10.5
2022-12-01T13:22:28.639Z,10.5
2022-12-01T13:23:35.796Z,10.5
2022-12-01T13:24:42.840Z,10.5
2022-12-01T13:25:49.410Z,10.5
2022-12-01T13:26:56.632Z,10.5
2022-12-01T13:28:03.711Z,10.5
2022-12-01T13:29:11.288Z,10.5
2022-12-01T13:30:17.834Z,10.5
2022-12-01T13:31:24.492Z,10.5
2022-12-01T13:32:31.785Z,10.5
2022-12-01T13:33:38.620Z,10.5
2022-12-01T13:36:15.176Z,10.6
2022-12-01T13:36:59.459Z,10.6
2022-12-01T13:38:06.568Z,10.6
2022-12-01T13:39:13.659Z,10.6
2022-12-01T13:40:20.755Z,10.6
2022-12-01T13:41:27.322Z,10.6
2022-12-01T13:42:34.586Z,10.6
2022-12-01T13:43:41.597Z,10.6
2022-12-01T13:44:48.973Z,10.6
2022-12-01T13:45:55.772Z,10.6
2022-12-01T13:47:02.420Z,10.7
2022-12-01T13:48:09.480Z,10.7
2022-12-01T13:49:16.541Z,10.7
2022-12-01T13:51:30.780Z,10.7
2022-12-01T13:52:37.506Z,10.7
2022-12-01T13:53:44.488Z,10.7
2022-12-01T13:54:51.638Z,10.7
2022-12-01T13:55:58.677Z,10.7
2022-12-01T13:57:05.807Z,10.7
2022-12-01T13:58:12.457Z,10.7
2022-12-01T13:59:19.491Z,10.7
2022-12-01T14:00:26.612Z,10.7
2022-12-01T14:01:33.897Z,10.7
2022-12-01T14:02:40.919Z,10.7
2022-12-01T14:03:47.382Z,10.7
2022-12-01T14:04:54.491Z,10.7
2022-12-01T14:06:01.634Z,10.7
2022-12-01T14:07:08.687Z,10.7
2022-12-01T14:08:21.261Z,10.7
2022-12-01T14:09:22.391Z,10.7
2022-12-01T14:10:29.463Z,10.7
2022-12-01T14:11:36.614Z,10.7
2022-12-01T14:12:43.731Z,10.7
2022-12-01T14:13:50.835Z,10.7
2022-12-01T14:14:57.637Z,10.7
2022-12-01T14:16:04.632Z,10.7
2022-12-01T14:17:11.659Z,10.7
2022-12-01T14:18:18.737Z,10.7
2022-12-01T14:19:25.840Z,10.7
2022-12-01T14:21:39.488Z,10.7
2022-12-01T14:22:46.715Z,10.7
2022-12-01T14:23:53.723Z,10.7
2022-12-01T14:25:00.791Z,10.7
2022-12-01T14:26:07.429Z,10.7
2022-12-01T14:27:20.528Z,10.7
2022-12-01T14:28:23.972Z,10.7
2022-12-01T14:29:28.727Z,10.7
2022-12-01T14:30:35.838Z,10.7
2022-12-01T14:32:49.594Z,10.7
2022-12-01T14:33:56.646Z,10.7
2022-12-01T14:35:03.757Z,10.7
2022-12-01T14:36:10.869Z,10.7
2022-12-01T14:37:17.491Z,10.7
2022-12-01T14:39:31.839Z,10.7
2022-12-01T14:40:38.741Z,10.6
2022-12-01T14:41:45.338Z,10.6
2022-12-01T14:42:52.530Z,10.7
2022-12-01T14:43:59.509Z,10.7
2022-12-01T14:45:06.939Z,10.7
2022-12-01T14:46:13.818Z,10.6
2022-12-01T14:47:20.403Z,10.7
2022-12-01T14:48:27.447Z,10.6
2022-12-01T14:49:34.542Z,10.6
2022-12-01T14:50:46.463Z,10.6
2022-12-01T14:51:48.790Z,10.6
2022-12-01T14:52:55.397Z,10.6
2022-12-01T14:54:02.555Z,10.6
2022-12-01T14:55:09.587Z,10.5
2022-12-01T14:56:16.894Z,10.5
2022-12-01T14:57:24.442Z,10.5
2022-12-01T14:58:30.379Z,10.5
2022-12-01T14:59:37.451Z,10.5
2022-12-01T15:00:44.627Z,10.5
2022-12-01T15:01:51.844Z,10.6
2022-12-01T15:02:58.814Z,10.5
2022-12-01T15:04:05.355Z,10.5
2022-12-01T15:05:12.563Z,10.5
2022-12-01T15:06:19.541Z,10.5
2022-12-01T15:07:27.041Z,10.5
2022-12-01T15:08:42.079Z,10.5
2022-12-01T15:09:40.507Z,10.5
2022-12-01T15:10:47.611Z,10.5
2022-12-01T15:11:54.739Z,10.5
2022-12-01T15:14:08.763Z,10.5
2022-12-01T15:15:17.064Z,10.5
2022-12-01T15:16:22.534Z,10.5
2022-12-01T15:17:29.711Z,10.5
2022-12-01T15:18:36.895Z,10.5
2022-12-01T15:19:43.770Z,10.5
2022-12-01T15:20:50.549Z,10.5
2022-12-01T15:21:57.637Z,10.5
2022-12-01T15:23:04.683Z,10.5
2022-12-01T15:24:11.830Z,10.5
2022-12-01T15:25:18.784Z,10.5
2022-12-01T15:26:25.389Z,10.5
2022-12-01T15:27:32.602Z,10.5
2022-12-01T15:28:40.106Z,10.5
2022-12-01T15:29:46.887Z,10.5
2022-12-01T15:30:53.788Z,10.5
2022-12-01T15:32:01.636Z,10.4
2022-12-01T15:33:07.768Z,10.4
2022-12-01T15:34:14.760Z,10.4
2022-12-01T15:35:21.823Z,10.4
2022-12-01T15:36:28.795Z,10.4
2022-12-01T15:37:35.501Z,10.4
2022-12-01T15:38:42.568Z,10.4
2022-12-01T15:39:49.703Z,10.4
2022-12-01T15:43:10.663Z,10.4
2022-12-01T15:44:17.615Z,10.4
2022-12-01T15:45:24.637Z,10.4
2022-12-01T15:46:31.793Z,10.4
2022-12-01T15:47:38.365Z,10.4
2022-12-01T15:49:52.767Z,10.4
2022-12-01T15:50:59.747Z,10.4
2022-12-01T15:52:06.698Z,10.4
2022-12-01T15:53:13.453Z,10.4
2022-12-01T15:55:27.642Z,10.4
2022-12-01T15:56:34.768Z,10.4
2022-12-01T15:57:41.872Z,10.4
2022-12-01T15:58:48.509Z,10.4
2022-12-01T15:59:55.435Z,10.3
2022-12-01T16:01:02.653Z,10.3
2022-12-01T16:02:09.741Z,10.3
2022-12-01T16:03:16.963Z,10.3
2022-12-01T16:04:23.478Z,10.4
2022-12-01T16:05:30.444Z,10.4
2022-12-01T16:06:37.646Z,10.4
2022-12-01T16:08:12.121Z,10.4
2022-12-01T16:08:51.990Z,10.4
2022-12-01T16:09:58.318Z,10.4